createdAt,value
2023-05-12T00:01:41.999Z,13.90
2023-05-12T00:04:10.759Z,14.73
2023-05-12T00:06:39.266Z,14.33
2023-05-12T00:09:09.695Z,13.93
2023-05-12T00:11:38.575Z,14.97
2023-05-12T00:14:07.436Z,14.00
2023-05-12T00:16:35.793Z,14.00
2023-05-12T00:19:04.610Z,14.33
2023-05-12T00:21:33.512Z,15.10
2023-05-12T00:24:02.102Z,14.03
2023-05-12T00:26:32.112Z,14.17
2023-05-12T00:29:00.874Z,13.53
2023-05-12T00:31:30.965Z,15.10
2023-05-12T00:33:59.781Z,14.13
2023-05-12T00:36:28.521Z,15.03
2023-05-12T00:38:58.412Z,14.57
2023-05-12T00:41:26.935Z,14.97
2023-05-12T00:43:56.774Z,14.60
2023-05-12T00:46:26.055Z,15.70
2023-05-12T00:48:55.010Z,14.83
2023-05-12T00:51:24.031Z,15.47
2023-05-12T00:53:53.196Z,15.10
2023-05-12T00:56:22.048Z,14.73
2023-05-12T00:58:51.090Z,15.43
2023-05-12T01:01:21.652Z,15.03
2023-05-12T01:03:54.389Z,15.47
2023-05-12T01:06:30.358Z,15.93
2023-05-12T01:09:00.150Z,15.07
2023-05-12T01:11:28.881Z,15.80
2023-05-12T01:13:57.583Z,15.70
2023-05-12T01:16:37.194Z,15.37
2023-05-12T01:19:16.761Z,16.20
2023-05-12T01:21:46.182Z,16.13
2023-05-12T01:24:21.664Z,16.80
2023-05-12T01:26:51.759Z,16.73
2023-05-12T01:29:21.199Z,15.43
2023-05-12T01:31:50.997Z,17.50
2023-05-12T01:34:20.497Z,16.03
2023-05-12T01:36:52.837Z,16.23
2023-05-12T01:39:21.911Z,16.77
2023-05-12T01:41:52.012Z,16.53
2023-05-12T01:44:21.602Z,15.37
2023-05-12T01:46:51.676Z,16.20
2023-05-12T01:49:20.365Z,16.43
2023-05-12T01:51:50.397Z,16.67
2023-05-12T01:54:25.152Z,15.83
2023-05-12T01:56:55.152Z,15.00
2023-05-12T01:59:24.293Z,16.43
2023-05-12T02:01:53.885Z,15.73
2023-05-12T02:04:29.945Z,16.10
2023-05-12T02:06:59.877Z,14.43
2023-05-12T02:09:28.545Z,16.00
2023-05-12T02:12:04.325Z,15.40
2023-05-12T02:14:33.012Z,15.53
2023-05-12T02:17:02.630Z,17.00
2023-05-12T02:19:30.949Z,15.67
2023-05-12T02:22:01.105Z,16.20
2023-05-12T02:24:30.289Z,15.97
2023-05-12T02:26:59.163Z,15.67
2023-05-12T02:29:28.828Z,15.47
2023-05-12T02:31:57.492Z,16.17
2023-05-12T02:34:26.179Z,14.93
2023-05-12T02:36:54.867Z,15.53
2023-05-12T02:39:23.553Z,15.87
2023-05-12T02:41:52.251Z,16.13
2023-05-12T02:44:22.390Z,15.13
2023-05-12T02:46:53.453Z,16.17
2023-05-12T02:49:22.052Z,15.60
2023-05-12T02:51:50.670Z,15.03
2023-05-12T02:54:19.368Z,15.00
2023-05-12T02:56:48.054Z,15.27
2023-05-12T02:59:16.744Z,16.17
2023-05-12T03:01:45.037Z,14.13
2023-05-12T03:04:14.982Z,15.13
2023-05-12T03:06:43.351Z,14.73
2023-05-12T03:09:12.161Z,14.73
2023-05-12T03:11:40.801Z,14.37
2023-05-12T03:14:09.483Z,14.63
2023-05-12T03:16:38.155Z,13.77
2023-05-12T03:19:06.994Z,14.30
2023-05-12T03:21:37.339Z,13.53
2023-05-12T03:24:07.023Z,12.57
2023-05-12T03:26:35.973Z,13.90
2023-05-12T03:29:04.267Z,12.90
2023-05-12T03:31:33.014Z,12.70
2023-05-12T03:34:01.703Z,13.40
2023-05-12T03:36:31.238Z,13.10
2023-05-12T03:39:03.019Z,13.23
2023-05-12T03:41:31.647Z,12.97
2023-05-12T03:44:00.313Z,12.80
2023-05-12T03:46:28.957Z,13.07
2023-05-12T03:48:58.731Z,13.00
2023-05-12T03:51:28.066Z,12.13
2023-05-12T03:53:56.743Z,13.07
2023-05-12T03:56:26.393Z,11.80
2023-05-12T03:58:55.167Z,12.23
2023-05-12T04:01:24.262Z,12.07
2023-05-12T04:03:53.037Z,12.27
2023-05-12T04:06:21.742Z,11.93
2023-05-12T04:08:50.398Z,12.23
2023-05-12T04:11:18.998Z,11.47
2023-05-12T04:13:48.616Z,12.90
2023-05-12T04:16:17.352Z,11.63
2023-05-12T04:18:46.056Z,12.73
2023-05-12T04:21:14.685Z,11.67
2023-05-12T04:23:43.332Z,11.37
2023-05-12T04:26:11.936Z,12.53
2023-05-12T04:28:40.518Z,12.03
2023-05-12T04:31:10.505Z,11.63
2023-05-12T04:33:39.305Z,12.10
2023-05-12T04:36:08.733Z,12.07
2023-05-12T04:38:37.893Z,12.33
2023-05-12T04:41:06.655Z,11.77
2023-05-12T04:46:09.100Z,11.50
2023-05-12T04:48:41.951Z,11.43
2023-05-12T04:51:10.646Z,11.10
2023-05-12T04:53:39.352Z,11.77
2023-05-12T04:56:08.796Z,12.10
2023-05-12T04:58:39.878Z,12.47
2023-05-12T05:01:12.288Z,11.80
2023-05-12T05:03:41.330Z,11.13
2023-05-12T05:06:10.237Z,11.57
2023-05-12T05:08:39.063Z,11.43
2023-05-12T05:11:07.660Z,12.43
2023-05-12T05:13:36.516Z,11.70
2023-05-12T05:16:05.397Z,11.27
2023-05-12T05:18:35.873Z,11.07
2023-05-12T05:21:04.852Z,11.60
2023-05-12T05:23:33.564Z,11.33
2023-05-12T05:26:03.933Z,10.77
2023-05-12T05:28:32.573Z,11.03
2023-05-12T05:31:02.267Z,10.90
2023-05-12T05:33:31.414Z,10.77
2023-05-12T05:36:01.229Z,11.17
2023-05-12T05:38:30.005Z,10.93
2023-05-12T05:40:58.656Z,10.80
2023-05-12T05:43:29.856Z,10.83
2023-05-12T05:45:59.153Z,10.07
2023-05-12T05:48:28.291Z,10.50
2023-05-12T05:50:56.927Z,10.10
2023-05-12T05:53:27.997Z,10.53
2023-05-12T05:55:57.137Z,10.10
2023-05-12T05:58:25.769Z,11.33
2023-05-12T06:00:54.477Z,10.43
2023-05-12T06:03:24.211Z,10.70
2023-05-12T06:05:53.162Z,10.17
2023-05-12T06:08:22.179Z,9.90
2023-05-12T06:10:52.229Z,9.40
2023-05-12T06:13:20.945Z,10.03
2023-05-12T06:15:49.595Z,9.07
2023-05-12T06:18:18.203Z,9.70
2023-05-12T06:20:46.893Z,10.03
2023-05-12T06:23:15.480Z,9.30
2023-05-12T06:25:43.710Z,9.53
2023-05-12T06:28:13.888Z,9.93
2023-05-12T06:30:42.921Z,9.40
2023-05-12T06:33:11.732Z,9.70
2023-05-12T06:35:40.397Z,9.15
2023-05-12T06:38:09.378Z,8.43
2023-05-12T06:40:38.353Z,8.13
2023-05-12T06:43:07.364Z,7.88
2023-05-12T06:45:38.466Z,8.82
2023-05-12T06:48:10.459Z,7.28
2023-05-12T06:50:38.904Z,7.45
2023-05-12T06:53:08.120Z,7.30
2023-05-12T06:55:36.786Z,7.45
2023-05-12T06:58:05.506Z,7.10
2023-05-12T07:00:34.216Z,6.93
2023-05-12T07:03:04.014Z,7.10
2023-05-12T07:05:32.721Z,6.57
2023-05-12T07:08:01.015Z,7.35
2023-05-12T07:10:29.581Z,7.35
2023-05-12T07:12:58.136Z,6.90
2023-05-12T07:15:26.808Z,7.15
2023-05-12T07:17:56.226Z,6.82
2023-05-12T07:20:25.968Z,6.55
2023-05-12T07:22:54.837Z,7.40
2023-05-12T07:25:23.765Z,6.30
2023-05-12T07:27:52.472Z,6.70
2023-05-12T07:30:22.444Z,6.90
2023-05-12T07:32:51.105Z,6.43
2023-05-12T07:35:19.980Z,6.20
2023-05-12T07:37:49.678Z,5.78
2023-05-12T07:40:18.442Z,6.30
2023-05-12T07:42:47.236Z,5.70
2023-05-12T07:45:22.842Z,6.40
2023-05-12T07:47:51.911Z,6.47
2023-05-12T07:50:21.423Z,6.00
2023-05-12T07:52:54.030Z,6.15
2023-05-12T07:55:23.709Z,6.57
2023-05-12T07:57:52.384Z,6.53
2023-05-12T08:00:21.420Z,7.22
2023-05-12T08:02:49.870Z,6.32
2023-05-12T08:05:18.736Z,6.32
2023-05-12T08:07:47.750Z,6.28
2023-05-12T08:10:19.290Z,6.25
2023-05-12T08:12:48.058Z,5.72
2023-05-12T08:15:17.086Z,5.50
2023-05-12T08:17:45.807Z,6.28
2023-05-12T08:20:14.948Z,5.75
2023-05-12T08:22:44.396Z,6.15
2023-05-12T08:25:12.985Z,6.47
2023-05-12T08:27:42.869Z,5.75
2023-05-12T08:30:12.528Z,5.85
2023-05-12T08:32:41.410Z,5.18
2023-05-12T08:35:10.109Z,6.05
2023-05-12T08:37:38.659Z,5.65
2023-05-12T08:40:17.709Z,5.40
2023-05-12T08:43:01.038Z,4.70
2023-05-12T08:45:30.718Z,5.30
2023-05-12T08:48:01.668Z,5.30
2023-05-12T08:50:32.092Z,5.47
2023-05-12T08:53:01.187Z,5.70
2023-05-12T08:55:33.581Z,6.03
2023-05-12T08:58:04.765Z,5.72
2023-05-12T09:00:36.108Z,5.50
2023-05-12T09:03:08.339Z,5.15
2023-05-12T09:05:38.235Z,4.65
2023-05-12T09:08:07.809Z,4.85
2023-05-12T09:10:36.781Z,4.25
2023-05-12T09:13:14.493Z,4.03
2023-05-12T09:15:46.007Z,3.47
2023-05-12T09:18:14.421Z,3.50
2023-05-12T09:20:43.584Z,3.15
2023-05-12T09:23:19.208Z,3.67
2023-05-12T09:25:48.694Z,3.65
2023-05-12T09:28:18.740Z,3.45
2023-05-12T09:30:47.402Z,3.40
2023-05-12T09:33:16.065Z,3.35
2023-05-12T09:35:46.379Z,2.80
2023-05-12T09:38:15.748Z,3.05
2023-05-12T09:40:44.263Z,2.47
2023-05-12T09:43:15.416Z,2.78
2023-05-12T09:45:47.570Z,2.55
2023-05-12T09:48:16.477Z,2.53
2023-05-12T09:50:49.689Z,2.22
2023-05-12T09:53:22.862Z,2.63
2023-05-12T09:55:51.631Z,2.58
2023-05-12T09:58:21.921Z,2.78
2023-05-12T10:03:27.935Z,2.90
2023-05-12T10:06:01.547Z,2.88
2023-05-12T10:08:36.282Z,2.85
2023-05-12T10:11:06.951Z,3.00
2023-05-12T10:13:35.527Z,2.95
2023-05-12T10:16:06.838Z,3.13
2023-05-12T10:18:37.098Z,2.72
2023-05-12T10:21:07.007Z,2.72
2023-05-12T10:23:38.287Z,3.03
2023-05-12T10:26:08.237Z,2.97
2023-05-12T10:28:37.365Z,3.50
2023-05-12T10:31:09.119Z,3.03
2023-05-12T10:33:37.941Z,2.40
2023-05-12T10:36:18.004Z,3.03
2023-05-12T10:38:50.847Z,2.80
2023-05-12T10:41:33.262Z,3.10
2023-05-12T10:44:02.343Z,2.78
2023-05-12T10:46:32.286Z,3.30
2023-05-12T10:49:04.195Z,3.42
2023-05-12T10:51:34.907Z,3.70
2023-05-12T10:54:07.773Z,2.97
2023-05-12T10:56:45.134Z,3.08
2023-05-12T10:59:19.047Z,2.92
2023-05-12T11:02:04.955Z,2.97
2023-05-12T11:04:42.749Z,3.28
2023-05-12T11:07:14.298Z,2.88
2023-05-12T11:12:17.511Z,2.90
2023-05-12T11:14:48.402Z,2.80
2023-05-12T11:17:18.661Z,3.03
2023-05-12T11:19:48.772Z,3.03
2023-05-12T11:22:21.649Z,2.88
2023-05-12T11:24:52.582Z,2.60
2023-05-12T11:27:24.676Z,2.63
2023-05-12T11:30:01.825Z,2.83
2023-05-12T11:32:31.670Z,2.72
2023-05-12T11:35:14.650Z,2.10
2023-05-12T11:37:44.964Z,2.10
2023-05-12T11:40:19.105Z,2.38
2023-05-12T11:42:51.539Z,2.10
2023-05-12T11:45:25.785Z,2.15
2023-05-12T11:48:07.730Z,2.30
2023-05-12T11:50:40.668Z,2.10
2023-05-12T11:53:14.601Z,2.25
2023-05-12T11:55:50.993Z,1.83
2023-05-12T11:58:26.539Z,2.58
2023-05-12T12:00:57.095Z,2.30
2023-05-12T12:03:27.057Z,2.58
2023-05-12T12:06:04.382Z,2.60
2023-05-12T12:08:34.098Z,2.50
2023-05-12T12:11:04.156Z,2.03
2023-05-12T12:13:32.726Z,1.80
2023-05-12T12:16:01.363Z,2.53
2023-05-12T12:18:33.077Z,2.00
2023-05-12T12:21:04.125Z,2.00
2023-05-12T12:23:40.597Z,2.10
2023-05-12T12:26:20.825Z,1.92
2023-05-12T12:28:49.803Z,1.67
2023-05-12T12:31:18.963Z,1.83
2023-05-12T12:33:49.023Z,1.85
2023-05-12T12:36:17.678Z,1.80
2023-05-12T12:38:46.336Z,1.63
2023-05-12T12:41:15.058Z,1.60
2023-05-12T12:43:44.636Z,1.50
2023-05-12T12:46:13.239Z,1.67
2023-05-12T12:48:42.348Z,1.92
2023-05-12T12:51:14.689Z,2.20
2023-05-12T12:53:46.121Z,1.85
2023-05-12T12:56:15.402Z,2.40
2023-05-12T12:58:44.327Z,2.10
2023-05-12T13:01:13.993Z,2.25
2023-05-12T13:03:42.633Z,2.17
2023-05-12T13:06:11.324Z,2.70
2023-05-12T13:08:42.444Z,2.72
2023-05-12T13:11:11.179Z,2.60
2023-05-12T13:13:39.798Z,2.40
2023-05-12T13:16:09.205Z,2.10
2023-05-12T13:18:37.821Z,2.75
2023-05-12T13:21:06.877Z,2.83
2023-05-12T13:23:35.147Z,2.58
2023-05-12T13:26:04.936Z,3.22
2023-05-12T13:28:33.308Z,2.47
2023-05-12T13:31:02.013Z,2.47
2023-05-12T13:33:30.827Z,2.30
2023-05-12T13:35:59.397Z,2.55
2023-05-12T13:38:28.003Z,2.20
2023-05-12T13:40:56.420Z,2.25
2023-05-12T13:43:26.485Z,1.90
2023-05-12T13:45:55.353Z,1.40
2023-05-12T13:48:24.141Z,1.08
2023-05-12T13:50:52.894Z,1.40
2023-05-12T13:53:21.564Z,1.45
2023-05-12T13:55:50.020Z,2.08
2023-05-12T13:58:18.651Z,1.85
2023-05-12T14:00:49.388Z,1.90
2023-05-12T14:03:18.163Z,1.67
2023-05-12T14:05:46.736Z,1.85
2023-05-12T14:08:15.295Z,1.60
2023-05-12T14:10:44.383Z,1.67
2023-05-12T14:13:13.817Z,1.98
2023-05-12T14:15:49.286Z,2.22
2023-05-12T14:18:19.765Z,2.00
2023-05-12T14:20:48.720Z,2.00
2023-05-12T14:23:17.547Z,2.10
2023-05-12T14:25:46.206Z,1.88
2023-05-12T14:28:14.851Z,1.50
2023-05-12T14:30:45.218Z,1.63
2023-05-12T14:33:14.287Z,1.40
2023-05-12T14:35:52.857Z,1.25
2023-05-12T14:38:28.334Z,1.50
2023-05-12T14:40:57.026Z,1.48
2023-05-12T14:43:25.720Z,1.30
2023-05-12T14:45:54.989Z,1.63
2023-05-12T14:48:26.071Z,1.65
2023-05-12T14:50:56.678Z,1.55
2023-05-12T14:53:25.917Z,1.40
2023-05-12T14:55:56.860Z,1.42
2023-05-12T14:58:25.761Z,1.52
2023-05-12T15:00:55.412Z,1.42
2023-05-12T15:03:24.846Z,1.50
2023-05-12T15:06:05.556Z,1.40
2023-05-12T15:08:35.649Z,1.63
2023-05-12T15:11:04.459Z,2.55
2023-05-12T15:13:33.284Z,1.45
2023-05-12T15:16:02.964Z,1.80
2023-05-12T15:18:31.500Z,1.80
2023-05-12T15:21:01.537Z,1.73
2023-05-12T15:23:30.267Z,2.00
2023-05-12T15:26:01.300Z,2.13
2023-05-12T15:28:35.521Z,2.10
2023-05-12T15:31:04.551Z,2.17
2023-05-12T15:33:33.148Z,2.30
2023-05-12T15:36:02.858Z,2.17
2023-05-12T15:38:32.330Z,2.67
2023-05-12T15:41:00.793Z,2.10
2023-05-12T15:43:30.231Z,2.30
2023-05-12T15:45:58.835Z,2.10
2023-05-12T15:48:27.399Z,2.00
2023-05-12T15:50:56.232Z,2.08
2023-05-12T15:53:26.271Z,2.25
2023-05-12T15:56:01.114Z,2.40
2023-05-12T15:58:30.732Z,2.22
2023-05-12T16:00:59.012Z,2.15
2023-05-12T16:03:27.633Z,2.50
2023-05-12T16:05:56.958Z,2.40
2023-05-12T16:08:26.929Z,2.40
2023-05-12T16:10:55.919Z,2.33
2023-05-12T16:13:24.516Z,2.50
2023-05-12T16:15:54.456Z,2.20
2023-05-12T16:18:23.063Z,2.40
2023-05-12T16:20:51.673Z,2.15
2023-05-12T16:23:20.336Z,2.30
2023-05-12T16:25:50.238Z,2.53
2023-05-12T16:28:19.162Z,2.00
2023-05-12T16:30:48.016Z,2.50
2023-05-12T16:33:16.705Z,2.30
2023-05-12T16:35:45.285Z,2.10
2023-05-12T16:38:15.407Z,2.05
2023-05-12T16:40:43.747Z,2.08
2023-05-12T16:43:13.724Z,2.00
2023-05-12T16:45:42.425Z,2.00
2023-05-12T16:48:11.054Z,2.10
2023-05-12T16:50:39.291Z,2.17
2023-05-12T16:53:07.906Z,2.25
2023-05-12T16:55:36.533Z,2.28
2023-05-12T16:58:05.170Z,2.30
2023-05-12T17:00:35.487Z,2.55
2023-05-12T17:03:04.906Z,2.60
2023-05-12T17:05:34.379Z,2.53
2023-05-12T17:08:03.641Z,2.53
2023-05-12T17:10:32.608Z,2.45
2023-05-12T17:13:00.800Z,2.33
2023-05-12T17:15:29.215Z,2.60
2023-05-12T17:17:59.100Z,2.20
2023-05-12T17:20:28.043Z,2.30
2023-05-12T17:22:57.053Z,2.20
2023-05-12T17:25:29.556Z,2.13
2023-05-12T17:27:58.547Z,2.10
2023-05-12T17:30:27.462Z,2.15
2023-05-12T17:32:56.252Z,2.30
2023-05-12T17:35:26.102Z,2.40
2023-05-12T17:37:55.686Z,2.30
2023-05-12T17:40:24.488Z,2.60
2023-05-12T17:42:53.267Z,2.35
2023-05-12T17:45:21.905Z,2.90
2023-05-12T17:47:51.273Z,2.50
2023-05-12T17:50:19.805Z,2.92
2023-05-12T17:52:51.022Z,2.70
2023-05-12T17:55:19.816Z,2.85
2023-05-12T17:57:49.371Z,3.20
2023-05-12T18:00:18.408Z,3.00
2023-05-12T18:02:47.226Z,3.10
2023-05-12T18:05:15.950Z,3.00
2023-05-12T18:07:45.623Z,3.50
2023-05-12T18:10:15.683Z,3.38
2023-05-12T18:12:44.298Z,3.25
2023-05-12T18:15:13.322Z,3.75
2023-05-12T18:17:42.035Z,3.33
2023-05-12T18:20:11.272Z,3.50
2023-05-12T18:22:39.872Z,3.78
2023-05-12T18:25:10.113Z,3.42
2023-05-12T18:27:40.037Z,3.17
2023-05-12T18:30:09.655Z,3.45
2023-05-12T18:32:38.962Z,3.13
2023-05-12T18:35:09.395Z,3.22
2023-05-12T18:37:38.652Z,3.28
2023-05-12T18:40:08.729Z,3.50
2023-05-12T18:42:37.474Z,3.33
2023-05-12T18:45:09.635Z,3.67
2023-05-12T18:47:38.800Z,3.53
2023-05-12T18:50:08.301Z,3.58
2023-05-12T18:52:36.941Z,3.95
2023-05-12T18:55:06.256Z,3.80
2023-05-12T18:57:34.891Z,4.03
2023-05-12T19:00:04.710Z,3.80
2023-05-12T19:02:35.033Z,3.70
2023-05-12T19:05:03.948Z,3.45
2023-05-12T19:07:32.580Z,3.65
2023-05-12T19:10:01.212Z,3.90
2023-05-12T19:12:29.590Z,4.10
2023-05-12T19:14:58.191Z,3.92
2023-05-12T19:17:26.779Z,3.80
2023-05-12T19:19:56.756Z,3.88
2023-05-12T19:22:26.665Z,4.20
2023-05-12T19:24:55.950Z,4.22
2023-05-12T19:27:26.946Z,4.22
2023-05-12T19:29:55.770Z,4.28
2023-05-12T19:32:24.530Z,4.05
2023-05-12T19:34:53.236Z,3.70
2023-05-12T19:37:22.987Z,4.35
2023-05-12T19:39:52.025Z,3.53
2023-05-12T19:42:20.404Z,3.30
2023-05-12T19:44:48.681Z,3.40
2023-05-12T19:47:17.781Z,3.40
2023-05-12T19:49:46.624Z,3.17
2023-05-12T19:52:14.926Z,2.80
2023-05-12T19:54:44.829Z,3.15
2023-05-12T19:57:13.448Z,2.95
2023-05-12T19:59:42.243Z,2.70
2023-05-12T20:02:14.149Z,2.72
2023-05-12T20:04:42.641Z,2.53
2023-05-12T20:07:11.553Z,2.30
2023-05-12T20:09:40.270Z,2.22
2023-05-12T20:12:11.359Z,2.00
2023-05-12T20:14:39.931Z,2.38
2023-05-12T20:17:09.300Z,2.63
2023-05-12T20:19:37.979Z,2.65
2023-05-12T20:22:07.358Z,2.47
2023-05-12T20:24:35.929Z,2.60
2023-05-12T20:27:04.704Z,2.72
2023-05-12T20:29:34.755Z,2.40
2023-05-12T20:32:03.441Z,2.42
2023-05-12T20:34:31.970Z,2.15
2023-05-12T20:37:01.058Z,2.00
2023-05-12T20:39:29.333Z,1.80
2023-05-12T20:41:58.522Z,1.85
2023-05-12T20:44:27.157Z,2.00
2023-05-12T20:46:56.987Z,1.83
2023-05-12T20:49:25.754Z,1.50
2023-05-12T20:51:54.085Z,1.80
2023-05-12T20:54:23.170Z,1.85
2023-05-12T20:56:51.648Z,1.70
2023-05-12T20:59:20.555Z,1.77
2023-05-12T21:01:49.311Z,1.58
2023-05-12T21:04:19.555Z,1.60
2023-05-12T21:06:48.214Z,1.55
2023-05-12T21:09:17.033Z,1.60
2023-05-12T21:11:45.763Z,1.80
2023-05-12T21:14:14.378Z,1.50
2023-05-12T21:16:43.198Z,1.70
2023-05-12T21:19:12.179Z,1.75
2023-05-12T21:21:42.160Z,1.50
2023-05-12T21:24:11.109Z,1.60
2023-05-12T21:26:39.749Z,1.60
2023-05-12T21:29:08.400Z,1.67
2023-05-12T21:31:37.038Z,2.08
2023-05-12T21:34:06.043Z,1.95
2023-05-12T21:36:34.626Z,1.77
2023-05-12T21:39:05.290Z,1.90
2023-05-12T21:41:34.025Z,1.70
2023-05-12T21:44:02.703Z,1.50
2023-05-12T21:46:31.655Z,1.60
2023-05-12T21:49:00.517Z,1.95
2023-05-12T21:51:30.128Z,1.50
2023-05-12T21:53:58.629Z,1.80
2023-05-12T21:56:28.249Z,1.80
2023-05-12T21:58:57.053Z,1.80
2023-05-12T22:01:26.147Z,1.70
2023-05-12T22:03:54.804Z,1.87
2023-05-12T22:06:23.169Z,1.60
2023-05-12T22:08:51.806Z,1.50
2023-05-12T22:11:21.193Z,1.58
2023-05-12T22:13:51.886Z,1.60
2023-05-12T22:16:25.685Z,1.90
2023-05-12T22:18:54.997Z,1.60
2023-05-12T22:21:23.454Z,1.77
2023-05-12T22:23:52.002Z,1.43
2023-05-12T22:26:20.605Z,1.40
2023-05-12T22:28:50.615Z,1.67
2023-05-12T22:31:19.205Z,1.77
2023-05-12T22:33:47.924Z,1.80
2023-05-12T22:36:17.385Z,1.70
2023-05-12T22:38:46.116Z,1.90
2023-05-12T22:41:14.662Z,2.08
2023-05-12T22:43:43.234Z,1.80
2023-05-12T22:46:13.104Z,1.80
2023-05-12T22:48:42.030Z,2.03
2023-05-12T22:51:10.848Z,1.65
2023-05-12T22:53:41.361Z,1.80
2023-05-12T22:56:10.302Z,2.03
2023-05-12T22:58:39.114Z,1.70
2023-05-12T23:01:07.819Z,1.70
2023-05-12T23:03:37.645Z,1.90
2023-05-12T23:06:06.493Z,1.95
2023-05-12T23:08:34.962Z,2.00
2023-05-12T23:11:03.213Z,1.83
2023-05-12T23:13:31.785Z,1.80
2023-05-12T23:16:00.462Z,1.88
2023-05-12T23:18:29.228Z,2.13
2023-05-12T23:21:01.420Z,2.08
2023-05-12T23:23:29.757Z,2.00
2023-05-12T23:25:58.902Z,2.05
2023-05-12T23:28:27.609Z,2.80
2023-05-12T23:30:56.256Z,5.93
2023-05-12T23:33:25.182Z,3.40
2023-05-12T23:35:53.971Z,5.17
2023-05-12T23:38:24.031Z,2.10
2023-05-12T23:40:52.652Z,2.00
2023-05-12T23:43:21.376Z,2.30
2023-05-12T23:45:49.748Z,1.95
2023-05-12T23:48:18.356Z,2.42
2023-05-12T23:50:47.217Z,2.35
2023-05-12T23:53:16.208Z,2.17
2023-05-12T23:55:46.059Z,2.20
2023-05-12T23:58:14.342Z,2.17
